createdAt,value
2023-04-06T00:02:01.735Z,15.13
2023-04-06T00:04:29.356Z,17.83
2023-04-06T00:06:57.394Z,20.37
2023-04-06T00:09:24.997Z,17.87
2023-04-06T00:11:52.575Z,16.97
2023-04-06T00:14:20.378Z,18.93
2023-04-06T00:16:48.120Z,17.03
2023-04-06T00:19:17.185Z,16.10
2023-04-06T00:21:44.784Z,15.03
2023-04-06T00:24:12.398Z,17.10
2023-04-06T00:26:40.055Z,14.70
2023-04-06T00:29:07.936Z,16.40
2023-04-06T00:31:35.873Z,18.63
2023-04-06T00:34:03.578Z,19.50
2023-04-06T00:36:32.554Z,16.43
2023-04-06T00:39:00.223Z,16.20
2023-04-06T00:41:27.946Z,17.07
2023-04-06T00:43:55.800Z,20.43
2023-04-06T00:46:23.481Z,15.20
2023-04-06T00:48:51.293Z,17.03
2023-04-06T00:51:18.867Z,12.33
2023-04-06T00:53:47.879Z,18.50
2023-04-06T00:56:15.553Z,14.47
2023-04-06T00:58:43.156Z,20.60
2023-04-06T01:01:10.816Z,15.93
2023-04-06T01:03:38.471Z,14.53
2023-04-06T01:06:06.314Z,16.60
2023-04-06T01:08:34.017Z,12.73
2023-04-06T01:11:03.044Z,15.40
2023-04-06T01:13:30.790Z,13.97
2023-04-06T01:15:58.732Z,14.83
2023-04-06T01:18:28.177Z,13.63
2023-04-06T01:20:55.987Z,16.17
2023-04-06T01:23:25.268Z,17.60
2023-04-06T01:25:52.828Z,15.00
2023-04-06T01:28:21.749Z,16.43
2023-04-06T01:30:49.441Z,14.87
2023-04-06T01:33:17.077Z,15.50
2023-04-06T01:35:44.729Z,14.67
2023-04-06T01:38:12.406Z,14.87
2023-04-06T01:40:41.510Z,13.90
2023-04-06T01:43:09.258Z,14.80
2023-04-06T01:45:36.966Z,17.33
2023-04-06T01:48:04.948Z,15.43
2023-04-06T01:50:32.722Z,15.13
2023-04-06T01:53:00.370Z,13.57
2023-04-06T01:55:28.034Z,13.87
2023-04-06T01:57:56.961Z,13.70
2023-04-06T02:00:24.589Z,14.60
2023-04-06T02:02:52.206Z,14.00
2023-04-06T02:05:19.844Z,13.00
2023-04-06T02:07:47.599Z,14.93
2023-04-06T02:10:16.602Z,13.43
2023-04-06T02:12:44.271Z,19.00
2023-04-06T02:15:14.230Z,14.93
2023-04-06T02:17:42.240Z,14.50
2023-04-06T02:20:10.938Z,15.30
2023-04-06T02:22:38.546Z,16.27
2023-04-06T02:25:07.138Z,17.83
2023-04-06T02:27:34.927Z,16.67
2023-04-06T02:30:02.839Z,13.60
2023-04-06T02:32:31.954Z,16.73
2023-04-06T02:34:59.751Z,13.53
2023-04-06T02:37:27.560Z,14.37
2023-04-06T02:39:55.421Z,15.60
2023-04-06T02:42:23.256Z,13.87
2023-04-06T02:44:51.064Z,12.60
2023-04-06T02:47:18.647Z,15.50
2023-04-06T02:49:48.557Z,12.33
2023-04-06T02:52:16.366Z,17.57
2023-04-06T02:54:44.034Z,13.07
2023-04-06T02:57:11.913Z,17.63
2023-04-06T02:59:39.626Z,12.23
2023-04-06T03:02:07.499Z,15.00
2023-04-06T03:04:35.232Z,13.47
2023-04-06T03:07:04.190Z,16.87
2023-04-06T03:09:31.830Z,13.03
2023-04-06T03:12:01.418Z,15.50
2023-04-06T03:14:30.132Z,12.40
2023-04-06T03:16:57.758Z,12.77
2023-04-06T03:19:25.386Z,14.27
2023-04-06T03:21:53.061Z,14.40
2023-04-06T03:24:22.027Z,12.20
2023-04-06T03:26:49.631Z,12.83
2023-04-06T03:29:17.270Z,13.50
2023-04-06T03:31:45.096Z,17.77
2023-04-06T03:34:12.830Z,12.87
2023-04-06T03:36:40.524Z,12.70
2023-04-06T03:39:08.425Z,12.43
2023-04-06T03:41:37.631Z,14.17
2023-04-06T03:44:05.445Z,13.00
2023-04-06T03:46:33.063Z,12.03
2023-04-06T03:49:00.819Z,11.90
2023-04-06T03:51:29.060Z,14.30
2023-04-06T03:53:56.849Z,15.40
2023-04-06T03:56:24.465Z,17.50
2023-04-06T03:58:53.494Z,11.20
2023-04-06T04:01:21.316Z,12.43
2023-04-06T04:03:51.082Z,11.57
2023-04-06T04:06:19.464Z,11.37
2023-04-06T04:08:47.209Z,12.10
2023-04-06T04:11:16.724Z,13.37
2023-04-06T04:13:44.411Z,10.83
2023-04-06T04:16:13.419Z,10.83
2023-04-06T04:18:41.096Z,10.00
2023-04-06T04:21:08.713Z,12.13
2023-04-06T04:23:37.461Z,14.63
2023-04-06T04:26:05.919Z,10.37
2023-04-06T04:28:33.590Z,12.13
2023-04-06T04:31:01.373Z,12.10
2023-04-06T04:33:34.805Z,11.43
2023-04-06T04:36:02.586Z,10.23
2023-04-06T04:38:30.269Z,13.50
2023-04-06T04:40:57.940Z,14.80
2023-04-06T04:43:25.603Z,10.03
2023-04-06T04:45:53.553Z,13.50
2023-04-06T04:48:21.332Z,12.33
2023-04-06T04:50:50.312Z,11.63
2023-04-06T04:53:17.953Z,11.10
2023-04-06T04:55:45.617Z,10.80
2023-04-06T04:58:16.394Z,10.43
2023-04-06T05:00:44.142Z,12.63
2023-04-06T05:03:21.831Z,12.43
2023-04-06T05:05:50.885Z,10.50
2023-04-06T05:08:18.617Z,12.03
2023-04-06T05:10:47.621Z,10.53
2023-04-06T05:13:15.488Z,14.77
2023-04-06T05:15:43.258Z,10.30
2023-04-06T05:18:10.958Z,11.47
2023-04-06T05:20:39.663Z,11.23
2023-04-06T05:23:08.749Z,11.70
2023-04-06T05:25:36.595Z,14.80
2023-04-06T05:28:04.251Z,14.47
2023-04-06T05:30:32.086Z,11.97
2023-04-06T05:33:01.130Z,10.43
2023-04-06T05:35:28.819Z,9.17
2023-04-06T05:37:56.565Z,10.57
2023-04-06T05:40:25.557Z,14.00
2023-04-06T05:42:53.247Z,10.40
2023-04-06T05:45:22.223Z,11.83
2023-04-06T05:47:50.013Z,9.73
2023-04-06T05:50:17.906Z,9.47
2023-04-06T05:52:47.321Z,10.20
2023-04-06T05:55:15.059Z,10.77
2023-04-06T05:57:46.506Z,7.97
2023-04-06T06:00:15.885Z,9.63
2023-04-06T06:02:43.885Z,15.37
2023-04-06T06:05:11.919Z,12.60
2023-04-06T06:07:39.603Z,11.40
2023-04-06T06:10:08.485Z,10.07
2023-04-06T06:12:38.533Z,12.80
2023-04-06T06:15:08.662Z,10.80
2023-04-06T06:17:39.010Z,10.17
2023-04-06T06:20:08.457Z,12.23
2023-04-06T06:22:36.116Z,10.23
2023-04-06T06:25:04.150Z,9.30
2023-04-06T06:27:31.838Z,9.37
2023-04-06T06:29:59.510Z,12.13
2023-04-06T06:32:28.516Z,11.17
2023-04-06T06:34:56.132Z,10.87
2023-04-06T06:37:23.788Z,13.90
2023-04-06T06:39:51.678Z,14.23
2023-04-06T06:42:20.402Z,10.70
2023-04-06T06:44:48.330Z,11.80
2023-04-06T06:47:16.022Z,14.87
2023-04-06T06:49:45.116Z,10.13
2023-04-06T06:52:12.887Z,9.13
2023-04-06T06:54:40.695Z,9.13
2023-04-06T06:57:09.301Z,12.43
2023-04-06T06:59:37.411Z,9.20
2023-04-06T07:02:05.329Z,12.63
2023-04-06T07:04:33.130Z,10.03
2023-04-06T07:07:02.529Z,8.70
2023-04-06T07:09:30.181Z,8.17
2023-04-06T07:11:58.296Z,7.67
2023-04-06T07:14:26.006Z,5.50
2023-04-06T07:16:53.892Z,8.80
2023-04-06T07:19:21.638Z,11.30
2023-04-06T07:21:50.218Z,9.80
2023-04-06T07:24:19.303Z,11.33
2023-04-06T07:26:47.370Z,5.87
2023-04-06T07:29:14.935Z,6.00
2023-04-06T07:31:43.735Z,7.40
2023-04-06T07:34:11.526Z,6.70
2023-04-06T07:36:39.114Z,7.93
2023-04-06T07:39:06.944Z,9.40
2023-04-06T07:41:35.977Z,10.97
2023-04-06T07:44:03.903Z,9.07
2023-04-06T07:46:32.211Z,10.97
2023-04-06T07:49:01.924Z,13.83
2023-04-06T07:51:29.656Z,8.80
2023-04-06T07:53:57.920Z,10.57
2023-04-06T07:56:26.213Z,6.40
2023-04-06T07:58:57.329Z,10.47
2023-04-06T08:01:25.051Z,13.10
2023-04-06T08:03:52.861Z,9.10
2023-04-06T08:06:20.754Z,12.43
2023-04-06T08:08:48.475Z,14.97
2023-04-06T08:11:16.609Z,9.37
2023-04-06T08:13:44.450Z,10.90
2023-04-06T08:16:13.491Z,9.67
2023-04-06T08:18:41.408Z,6.23
2023-04-06T08:21:10.116Z,7.90
2023-04-06T08:23:37.714Z,6.90
2023-04-06T08:26:05.798Z,9.50
2023-04-06T08:28:35.506Z,9.53
2023-04-06T08:31:06.037Z,9.57
2023-04-06T08:33:36.908Z,9.57
2023-04-06T08:36:12.653Z,6.60
2023-04-06T08:38:41.563Z,4.53
2023-04-06T08:41:10.899Z,7.30
2023-04-06T08:43:45.665Z,10.03
2023-04-06T08:46:13.603Z,8.30
2023-04-06T08:48:43.846Z,14.03
2023-04-06T08:51:12.170Z,8.20
2023-04-06T08:53:40.626Z,11.32
2023-04-06T08:56:11.329Z,11.90
2023-04-06T08:58:41.287Z,8.32
2023-04-06T09:01:10.803Z,14.32
2023-04-06T09:03:41.047Z,6.50
2023-04-06T09:06:11.252Z,10.23
2023-04-06T09:08:43.141Z,7.18
2023-04-06T09:11:11.850Z,7.07
2023-04-06T09:13:50.542Z,9.20
2023-04-06T09:16:19.009Z,8.70
2023-04-06T09:18:47.179Z,6.25
2023-04-06T09:21:19.261Z,9.48
2023-04-06T09:23:50.509Z,12.43
2023-04-06T09:26:19.424Z,9.65
2023-04-06T09:28:48.913Z,10.57
2023-04-06T09:31:17.729Z,4.72
2023-04-06T09:33:47.586Z,11.63
2023-04-06T09:36:17.440Z,9.88
2023-04-06T09:38:56.211Z,13.45
2023-04-06T09:41:25.539Z,7.65
2023-04-06T09:43:53.863Z,8.65
2023-04-06T09:46:23.806Z,11.13
2023-04-06T09:48:52.100Z,11.25
2023-04-06T09:51:22.314Z,8.35
2023-04-06T09:53:55.532Z,10.07
2023-04-06T09:56:26.779Z,9.23
2023-04-06T09:59:03.581Z,11.30
2023-04-06T10:01:35.829Z,7.57
2023-04-06T10:04:22.007Z,11.18
2023-04-06T10:06:53.477Z,8.65
2023-04-06T10:09:27.019Z,7.10
2023-04-06T10:11:54.778Z,9.85
2023-04-06T10:14:22.500Z,8.73
2023-04-06T10:16:50.663Z,11.38
2023-04-06T10:19:24.184Z,10.32
2023-04-06T10:21:57.812Z,7.88
2023-04-06T10:24:25.612Z,9.48
2023-04-06T10:27:01.228Z,11.93
2023-04-06T10:29:29.291Z,9.38
2023-04-06T10:31:56.999Z,11.20
2023-04-06T10:34:32.128Z,10.07
2023-04-06T10:37:13.027Z,9.60
2023-04-06T10:39:49.989Z,7.10
2023-04-06T10:42:17.616Z,7.10
2023-04-06T10:44:46.485Z,10.45
2023-04-06T10:47:21.349Z,7.28
2023-04-06T10:49:49.047Z,10.20
2023-04-06T10:52:18.357Z,7.32
2023-04-06T10:54:50.465Z,10.18
2023-04-06T10:57:18.226Z,9.38
2023-04-06T10:59:46.137Z,13.13
2023-04-06T11:02:22.692Z,7.30
2023-04-06T11:04:58.067Z,8.00
2023-04-06T11:07:27.880Z,15.55
2023-04-06T11:10:12.686Z,9.77
2023-04-06T11:12:43.543Z,7.10
2023-04-06T11:15:12.025Z,10.50
2023-04-06T11:17:40.934Z,9.10
2023-04-06T11:20:12.820Z,9.90
2023-04-06T11:22:51.695Z,8.98
2023-04-06T11:25:19.837Z,8.75
2023-04-06T11:27:48.977Z,10.38
2023-04-06T11:30:16.882Z,10.02
2023-04-06T11:32:46.148Z,10.70
2023-04-06T11:35:23.631Z,10.90
2023-04-06T11:37:53.253Z,9.98
2023-04-06T11:40:23.500Z,16.00
2023-04-06T11:42:54.862Z,11.75
2023-04-06T11:45:23.028Z,9.68
2023-04-06T11:47:58.473Z,9.55
2023-04-06T11:50:26.285Z,12.13
2023-04-06T11:53:02.463Z,9.93
2023-04-06T11:55:32.295Z,9.52
2023-04-06T11:58:01.230Z,10.40
2023-04-06T12:00:32.882Z,12.00
2023-04-06T12:03:00.593Z,10.30
2023-04-06T12:05:28.580Z,11.60
2023-04-06T12:07:57.475Z,9.85
2023-04-06T12:10:27.974Z,11.30
2023-04-06T12:12:55.669Z,11.48
2023-04-06T12:15:23.430Z,13.90
2023-04-06T12:17:51.574Z,10.52
2023-04-06T12:20:26.473Z,8.27
2023-04-06T12:22:54.587Z,13.25
2023-04-06T12:25:23.750Z,13.93
2023-04-06T12:27:52.971Z,14.23
2023-04-06T12:30:20.824Z,10.05
2023-04-06T12:32:51.107Z,8.05
2023-04-06T12:35:21.626Z,10.65
2023-04-06T12:37:49.335Z,10.02
2023-04-06T12:40:17.233Z,9.48
2023-04-06T12:42:46.596Z,12.52
2023-04-06T12:45:18.130Z,12.85
2023-04-06T12:47:45.760Z,8.88
2023-04-06T12:50:13.648Z,11.68
2023-04-06T12:52:41.267Z,12.68
2023-04-06T12:55:10.169Z,9.40
2023-04-06T12:57:38.049Z,9.23
2023-04-06T13:00:09.169Z,14.98
2023-04-06T13:02:38.657Z,10.57
2023-04-06T13:05:09.020Z,8.52
2023-04-06T13:07:36.676Z,9.85
2023-04-06T13:10:04.914Z,10.48
2023-04-06T13:12:32.573Z,12.45
2023-04-06T13:15:01.045Z,9.35
2023-04-06T13:17:29.376Z,9.95
2023-04-06T13:19:58.599Z,14.35
2023-04-06T13:22:26.614Z,9.55
2023-04-06T13:24:54.261Z,13.23
2023-04-06T13:27:21.949Z,11.38
2023-04-06T13:29:49.589Z,10.05
2023-04-06T13:32:17.303Z,10.85
2023-04-06T13:34:45.870Z,8.02
2023-04-06T13:37:15.738Z,8.77
2023-04-06T13:39:43.768Z,11.10
2023-04-06T13:42:11.979Z,12.30
2023-04-06T13:44:39.782Z,9.85
2023-04-06T13:47:08.140Z,7.90
2023-04-06T13:49:36.883Z,10.63
2023-04-06T13:52:04.806Z,11.35
2023-04-06T13:54:33.865Z,11.02
2023-04-06T13:57:01.765Z,8.02
2023-04-06T13:59:34.540Z,7.80
2023-04-06T14:02:02.383Z,11.52
2023-04-06T14:04:31.020Z,8.48
2023-04-06T14:06:59.039Z,9.07
2023-04-06T14:09:26.833Z,12.00
2023-04-06T14:11:56.254Z,9.88
2023-04-06T14:14:24.370Z,7.07
2023-04-06T14:16:52.044Z,12.85
2023-04-06T14:19:20.528Z,9.48
2023-04-06T14:21:48.276Z,10.07
2023-04-06T14:24:18.848Z,11.38
2023-04-06T14:26:46.589Z,11.07
2023-04-06T14:29:16.683Z,9.68
2023-04-06T14:31:44.360Z,9.70
2023-04-06T14:34:12.116Z,10.43
2023-04-06T14:36:40.059Z,10.18
2023-04-06T14:39:08.966Z,12.93
2023-04-06T14:41:36.774Z,12.88
2023-04-06T14:44:06.589Z,8.73
2023-04-06T14:46:35.773Z,8.80
2023-04-06T14:49:04.288Z,9.63
2023-04-06T14:51:32.238Z,9.52
2023-04-06T14:54:01.907Z,13.25
2023-04-06T14:56:30.062Z,10.15
2023-04-06T14:59:00.512Z,11.73
2023-04-06T15:01:29.287Z,10.38
2023-04-06T15:03:58.306Z,8.75
2023-04-06T15:06:26.584Z,7.50
2023-04-06T15:08:55.534Z,10.07
2023-04-06T15:11:23.612Z,7.95
2023-04-06T15:13:51.584Z,13.18
2023-04-06T15:16:19.225Z,11.43
2023-04-06T15:18:46.894Z,9.15
2023-04-06T15:21:16.141Z,9.98
2023-04-06T15:23:43.803Z,10.80
2023-04-06T15:26:11.900Z,9.48
2023-04-06T15:28:39.550Z,9.40
2023-04-06T15:31:20.640Z,7.45
2023-04-06T15:33:56.479Z,10.52
2023-04-06T15:36:29.439Z,8.85
2023-04-06T15:38:57.842Z,9.32
2023-04-06T15:41:26.756Z,8.48
2023-04-06T15:43:55.294Z,10.52
2023-04-06T15:46:23.246Z,13.15
2023-04-06T15:48:50.953Z,11.27
2023-04-06T15:51:18.679Z,10.02
2023-04-06T15:53:47.677Z,14.75
2023-04-06T15:56:15.856Z,9.30
2023-04-06T15:58:43.543Z,10.27
2023-04-06T16:01:15.495Z,12.43
2023-04-06T16:03:43.552Z,10.05
2023-04-06T16:06:12.253Z,15.07
2023-04-06T16:08:40.872Z,12.95
2023-04-06T16:11:10.420Z,8.68
2023-04-06T16:13:38.377Z,10.20
2023-04-06T16:16:07.120Z,8.63
2023-04-06T16:18:36.454Z,7.65
2023-04-06T16:21:05.401Z,11.18
2023-04-06T16:23:33.189Z,8.00
2023-04-06T16:26:02.300Z,11.10
2023-04-06T16:28:31.458Z,10.45
2023-04-06T16:30:59.149Z,11.75
2023-04-06T16:33:26.770Z,9.30
2023-04-06T16:35:55.355Z,12.05
2023-04-06T16:38:23.999Z,9.68
2023-04-06T16:41:00.747Z,10.15
2023-04-06T16:43:28.514Z,12.98
2023-04-06T16:45:57.662Z,9.77
2023-04-06T16:48:25.742Z,10.82
2023-04-06T16:50:53.376Z,11.45
2023-04-06T16:53:21.075Z,9.00
2023-04-06T16:55:48.756Z,11.30
2023-04-06T16:58:16.459Z,9.63
2023-04-06T17:00:45.185Z,11.00
2023-04-06T17:03:14.476Z,10.90
2023-04-06T17:05:42.295Z,12.48
2023-04-06T17:08:10.028Z,15.15
2023-04-06T17:10:46.913Z,12.88
2023-04-06T17:13:25.416Z,13.90
2023-04-06T17:15:54.309Z,15.02
2023-04-06T17:18:23.292Z,13.80
2023-04-06T17:20:51.037Z,14.20
2023-04-06T17:23:21.008Z,12.50
2023-04-06T17:25:48.646Z,14.95
2023-04-06T17:28:16.350Z,14.35
2023-04-06T17:30:44.212Z,11.48
2023-04-06T17:33:12.475Z,12.27
2023-04-06T17:35:42.371Z,10.82
2023-04-06T17:38:10.246Z,13.23
2023-04-06T17:40:38.510Z,14.57
2023-04-06T17:43:06.843Z,15.88
2023-04-06T17:45:34.579Z,13.90
2023-04-06T17:48:02.327Z,12.80
2023-04-06T17:50:30.539Z,13.63
2023-04-06T17:52:59.509Z,10.90
2023-04-06T17:55:27.573Z,14.45
2023-04-06T17:57:55.490Z,12.50
2023-04-06T18:00:24.572Z,12.93
2023-04-06T18:02:53.031Z,15.93
2023-04-06T18:05:21.728Z,12.93
2023-04-06T18:07:49.437Z,10.68
2023-04-06T18:10:18.831Z,13.50
2023-04-06T18:12:46.552Z,16.08
2023-04-06T18:15:15.299Z,17.15
2023-04-06T18:17:43.255Z,16.52
2023-04-06T18:20:13.305Z,13.65
2023-04-06T18:22:42.687Z,15.55
2023-04-06T18:25:10.727Z,12.30
2023-04-06T18:27:39.758Z,14.02
2023-04-06T18:30:08.482Z,11.88
2023-04-06T18:32:36.330Z,11.60
2023-04-06T18:35:05.496Z,14.32
2023-04-06T18:37:33.232Z,18.27
2023-04-06T18:40:01.076Z,16.08
2023-04-06T18:42:28.827Z,17.27
2023-04-06T18:44:58.934Z,14.30
2023-04-06T18:47:26.852Z,14.30
2023-04-06T18:49:54.750Z,13.50
2023-04-06T18:52:22.693Z,14.65
2023-04-06T18:54:51.038Z,20.02
2023-04-06T18:57:18.667Z,16.38
2023-04-06T18:59:46.425Z,15.23
2023-04-06T19:02:15.466Z,16.48
2023-04-06T19:04:43.289Z,12.88
2023-04-06T19:07:11.113Z,16.05
2023-04-06T19:09:38.747Z,14.60
2023-04-06T19:12:07.393Z,14.00
2023-04-06T19:14:35.077Z,18.45
2023-04-06T19:17:02.823Z,14.70
2023-04-06T19:19:31.783Z,11.77
2023-04-06T19:22:01.951Z,14.27
2023-04-06T19:24:29.889Z,13.60
2023-04-06T19:27:03.363Z,14.90
2023-04-06T19:29:31.658Z,16.83
2023-04-06T19:31:59.723Z,17.75
2023-04-06T19:34:28.614Z,16.85
2023-04-06T19:36:57.693Z,12.85
2023-04-06T19:39:26.435Z,15.98
2023-04-06T19:41:54.029Z,12.90
2023-04-06T19:44:21.743Z,13.75
2023-04-06T19:46:50.495Z,12.68
2023-04-06T19:49:18.315Z,21.48
2023-04-06T19:51:46.122Z,15.98
2023-04-06T19:54:15.262Z,16.73
2023-04-06T19:56:42.916Z,15.80
2023-04-06T19:59:11.259Z,15.07
2023-04-06T20:01:39.049Z,14.18
2023-04-06T20:04:07.818Z,12.63
2023-04-06T20:06:35.630Z,14.98
2023-04-06T20:09:03.327Z,14.43
2023-04-06T20:11:34.282Z,17.38
2023-04-06T20:14:02.376Z,15.52
2023-04-06T20:16:30.259Z,14.43
2023-04-06T20:18:57.952Z,13.70
2023-04-06T20:21:25.807Z,14.38
2023-04-06T20:23:53.717Z,17.88
2023-04-06T20:26:21.409Z,14.57
2023-04-06T20:28:50.420Z,16.75
2023-04-06T20:31:18.081Z,14.82
2023-04-06T20:33:45.752Z,17.55
2023-04-06T20:36:13.387Z,19.05
2023-04-06T20:38:41.443Z,17.30
2023-04-06T20:41:10.223Z,14.57
2023-04-06T20:43:38.391Z,19.55
2023-04-06T20:46:09.215Z,19.08
2023-04-06T20:48:38.004Z,12.77
2023-04-06T20:51:06.469Z,13.85
2023-04-06T20:53:34.450Z,16.58
2023-04-06T20:56:09.349Z,16.42
2023-04-06T20:58:41.392Z,15.95
2023-04-06T21:01:14.978Z,15.88
2023-04-06T21:03:43.413Z,18.40
2023-04-06T21:06:11.521Z,17.00
2023-04-06T21:08:39.763Z,11.75
2023-04-06T21:11:07.674Z,17.27
2023-04-06T21:13:36.305Z,17.90
2023-04-06T21:16:04.630Z,20.02
2023-04-06T21:18:33.703Z,15.35
2023-04-06T21:21:01.741Z,15.40
2023-04-06T21:23:29.559Z,15.50
2023-04-06T21:25:57.798Z,13.65
2023-04-06T21:28:27.116Z,15.25
2023-04-06T21:30:55.373Z,14.95
2023-04-06T21:33:23.596Z,14.75
2023-04-06T21:35:53.516Z,14.38
2023-04-06T21:38:21.518Z,17.70
2023-04-06T21:40:55.345Z,19.45
2023-04-06T21:43:22.985Z,17.60
2023-04-06T21:45:51.180Z,17.33
2023-04-06T21:48:19.352Z,11.98
2023-04-06T21:50:47.125Z,11.65
2023-04-06T21:53:16.178Z,17.48
2023-04-06T21:55:44.805Z,17.05
2023-04-06T21:58:13.298Z,17.13
2023-04-06T22:00:41.685Z,15.20
2023-04-06T22:03:09.689Z,14.98
2023-04-06T22:05:51.346Z,15.60
2023-04-06T22:08:33.355Z,14.40
2023-04-06T22:11:04.433Z,17.25
2023-04-06T22:13:32.314Z,13.10
2023-04-06T22:16:00.034Z,18.08
2023-04-06T22:18:27.898Z,15.43
2023-04-06T22:20:56.024Z,20.25
2023-04-06T22:23:25.469Z,16.27
2023-04-06T22:25:57.925Z,18.48
2023-04-06T22:28:25.792Z,15.20
2023-04-06T22:30:53.404Z,15.93
2023-04-06T22:33:21.499Z,15.25
2023-04-06T22:35:49.196Z,15.75
2023-04-06T22:38:17.003Z,18.35
2023-04-06T22:40:45.942Z,17.13
2023-04-06T22:43:13.646Z,13.85
2023-04-06T22:45:41.310Z,17.52
2023-04-06T22:48:11.228Z,14.63
2023-04-06T22:50:39.360Z,16.27
2023-04-06T22:53:07.314Z,17.58
2023-04-06T22:55:35.324Z,14.40
2023-04-06T22:58:04.344Z,18.00
2023-04-06T23:00:32.125Z,13.90
2023-04-06T23:03:00.260Z,16.77
2023-04-06T23:05:30.270Z,17.13
2023-04-06T23:07:58.065Z,14.43
2023-04-06T23:10:25.664Z,17.67
2023-04-06T23:12:53.822Z,15.13
2023-04-06T23:15:23.000Z,18.13
2023-04-06T23:17:54.068Z,15.63
2023-04-06T23:20:22.311Z,15.35
2023-04-06T23:22:52.305Z,13.88
2023-04-06T23:25:20.178Z,14.75
2023-04-06T23:27:48.023Z,15.88
2023-04-06T23:30:16.281Z,16.73
2023-04-06T23:32:45.961Z,15.23
2023-04-06T23:35:13.820Z,17.00
2023-04-06T23:37:41.621Z,16.45
2023-04-06T23:40:10.393Z,18.27
2023-04-06T23:42:38.109Z,19.63
2023-04-06T23:45:06.826Z,17.48
2023-04-06T23:47:34.587Z,14.43
2023-04-06T23:50:06.321Z,16.10
2023-04-06T23:52:34.304Z,16.67
2023-04-06T23:55:01.925Z,17.58
2023-04-06T23:57:29.650Z,18.40
2023-04-06T23:59:59.941Z,18.02
